createdAt,value
2018-10-03T00:01:51.974Z,102736.80
2018-10-03T00:04:21.863Z,102731.58
2018-10-03T00:06:50.992Z,102733.48
2018-10-03T00:09:20.134Z,102729.10
2018-10-03T00:11:49.153Z,102712.61
2018-10-03T00:14:18.249Z,102723.09
2018-10-03T00:16:47.405Z,102713.20
2018-10-03T00:19:16.522Z,102718.41
2018-10-03T00:21:46.085Z,102717.04
2018-10-03T00:24:15.296Z,102719.24
2018-10-03T00:26:44.377Z,102715.67
2018-10-03T00:29:13.372Z,102717.31
2018-10-03T00:31:42.435Z,102715.09
2018-10-03T00:34:11.447Z,102723.88
2018-10-03T00:36:40.529Z,102732.94
2018-10-03T00:39:11.231Z,102737.84
2018-10-03T00:41:41.397Z,102739.74
2018-10-03T00:44:10.617Z,102742.74
2018-10-03T00:46:40.715Z,102730.09
2018-10-03T00:49:10.242Z,102733.32
2018-10-03T00:51:39.909Z,102736.94
2018-10-03T00:54:09.049Z,102739.89
2018-10-03T00:56:38.094Z,102746.48
2018-10-03T00:59:07.308Z,102751.13
2018-10-03T01:01:36.329Z,102746.20
2018-10-03T01:04:05.423Z,102739.36
2018-10-03T01:06:34.592Z,102737.16
2018-10-03T01:09:04.307Z,102749.84
2018-10-03T01:11:33.453Z,102748.49
2018-10-03T01:14:02.601Z,102741.97
2018-10-03T01:16:31.826Z,102745.59
2018-10-03T01:19:01.434Z,102742.60
2018-10-03T01:21:30.643Z,102746.76
2018-10-03T01:23:59.799Z,102744.29
2018-10-03T01:26:28.878Z,102736.64
2018-10-03T01:28:57.994Z,102749.81
2018-10-03T01:31:27.085Z,102739.95
2018-10-03T01:33:56.137Z,102744.86
2018-10-03T01:36:25.999Z,102748.92
2018-10-03T01:38:55.048Z,102742.86
2018-10-03T01:41:24.111Z,102748.06
2018-10-03T01:43:53.280Z,102743.95
2018-10-03T01:46:22.352Z,102734.33
2018-10-03T01:48:51.428Z,102742.02
2018-10-03T01:51:26.984Z,102736.79
2018-10-03T01:53:56.016Z,102733.48
2018-10-03T01:56:25.135Z,102727.69
2018-10-03T01:58:54.232Z,102733.53
2018-10-03T02:01:23.380Z,102734.06
2018-10-03T02:03:52.525Z,102729.64
2018-10-03T02:06:21.705Z,102738.73
2018-10-03T02:08:50.689Z,102738.95
2018-10-03T02:11:19.709Z,102742.22
2018-10-03T02:13:48.757Z,102737.53
2018-10-03T02:16:17.838Z,102738.89
2018-10-03T02:18:46.890Z,102739.12
2018-10-03T02:21:15.919Z,102737.43
2018-10-03T02:23:45.007Z,102735.78
2018-10-03T02:26:14.033Z,102728.55
2018-10-03T02:28:43.173Z,102733.84
2018-10-03T02:31:12.288Z,102737.69
2018-10-03T02:33:41.333Z,102730.89
2018-10-03T02:36:10.353Z,102737.22
2018-10-03T02:38:39.357Z,102728.20
2018-10-03T02:41:08.411Z,102726.62
2018-10-03T02:43:37.456Z,102726.15
2018-10-03T02:46:06.604Z,102741.53
2018-10-03T02:48:35.661Z,102739.07
2018-10-03T02:51:04.731Z,102749.23
2018-10-03T02:53:33.853Z,102737.21
2018-10-03T02:56:02.957Z,102741.87
2018-10-03T02:58:37.904Z,102741.08
2018-10-03T03:01:07.043Z,102741.08
2018-10-03T03:03:36.152Z,102743.02
2018-10-03T03:06:05.205Z,102738.12
2018-10-03T03:08:35.143Z,102736.48
2018-10-03T03:11:04.147Z,102737.54
2018-10-03T03:13:33.284Z,102731.89
2018-10-03T03:16:02.493Z,102737.64
2018-10-03T03:18:31.532Z,102734.64
2018-10-03T03:21:00.521Z,102733.00
2018-10-03T03:23:29.543Z,102730.31
2018-10-03T03:25:59.713Z,102732.25
2018-10-03T03:28:28.740Z,102727.30
2018-10-03T03:30:57.785Z,102728.41
2018-10-03T03:33:26.901Z,102727.83
2018-10-03T03:35:56.020Z,102730.52
2018-10-03T03:38:25.116Z,102719.52
2018-10-03T03:40:54.217Z,102725.20
2018-10-03T03:43:23.409Z,102724.14
2018-10-03T03:45:52.411Z,102724.41
2018-10-03T03:48:21.518Z,102721.16
2018-10-03T03:50:50.650Z,102729.42
2018-10-03T03:53:19.742Z,102727.83
2018-10-03T03:55:48.883Z,102739.37
2018-10-03T03:58:18.056Z,102741.05
2018-10-03T04:00:47.386Z,102734.20
2018-10-03T04:03:16.383Z,102741.05
2018-10-03T04:05:45.375Z,102732.79
2018-10-03T04:08:14.371Z,102734.95
2018-10-03T04:10:43.530Z,102730.53
2018-10-03T04:13:12.585Z,102728.01
2018-10-03T04:15:41.564Z,102722.21
2018-10-03T04:18:10.615Z,102735.59
2018-10-03T04:20:39.642Z,102721.88
2018-10-03T04:23:08.981Z,102719.94
2018-10-03T04:25:38.003Z,102730.31
2018-10-03T04:28:07.194Z,102725.67
2018-10-03T04:30:36.263Z,102734.13
2018-10-03T04:33:05.395Z,102723.47
2018-10-03T04:35:34.556Z,102724.30
2018-10-03T04:38:03.657Z,102730.36
2018-10-03T04:40:32.752Z,102734.47
2018-10-03T04:43:01.844Z,102737.48
2018-10-03T04:45:30.900Z,102735.58
2018-10-03T04:48:00.060Z,102738.34
2018-10-03T04:50:29.268Z,102736.48
2018-10-03T04:52:58.282Z,102746.61
2018-10-03T04:55:27.325Z,102740.34
2018-10-03T04:57:56.368Z,102748.86
2018-10-03T05:00:25.356Z,102759.03
2018-10-03T05:02:54.433Z,102763.72
2018-10-03T05:05:23.531Z,102763.16
2018-10-03T05:07:52.591Z,102767.00
2018-10-03T05:10:21.637Z,102759.63
2018-10-03T05:12:50.657Z,102769.52
2018-10-03T05:15:19.728Z,102763.47
2018-10-03T05:17:48.828Z,102753.88
2018-10-03T05:20:17.970Z,102761.03
2018-10-03T05:22:46.974Z,102759.94
2018-10-03T05:25:16.005Z,102759.67
2018-10-03T05:27:45.133Z,102761.61
2018-10-03T05:30:15.024Z,102765.72
2018-10-03T05:32:44.212Z,102761.61
2018-10-03T05:35:13.241Z,102772.31
2018-10-03T05:37:42.266Z,102777.80
2018-10-03T05:40:11.520Z,102779.13
2018-10-03T05:42:40.505Z,102791.77
2018-10-03T05:45:09.598Z,102788.50
2018-10-03T05:47:38.718Z,102789.34
2018-10-03T05:50:07.841Z,102787.97
2018-10-03T05:52:36.937Z,102790.45
2018-10-03T05:55:06.384Z,102783.81
2018-10-03T05:57:35.707Z,102794.56
2018-10-03T06:00:05.184Z,102794.56
2018-10-03T06:02:34.460Z,102797.30
2018-10-03T06:05:03.560Z,102793.72
2018-10-03T06:07:32.786Z,102798.67
2018-10-03T06:10:01.884Z,102802.78
2018-10-03T06:12:30.990Z,102806.36
2018-10-03T06:15:00.067Z,102815.39
2018-10-03T06:17:29.117Z,102818.44
2018-10-03T06:19:58.177Z,102821.45
2018-10-03T06:22:27.201Z,102816.28
2018-10-03T06:24:56.320Z,102820.66
2018-10-03T06:27:25.550Z,102820.61
2018-10-03T06:29:55.175Z,102817.92
2018-10-03T06:32:24.210Z,102823.70
2018-10-03T06:34:53.973Z,102829.73
2018-10-03T06:37:23.359Z,102833.05
2018-10-03T06:39:52.946Z,102834.16
2018-10-03T06:42:23.792Z,102837.43
2018-10-03T06:44:53.271Z,102836.36
2018-10-03T06:47:22.628Z,102838.54
2018-10-03T06:49:52.000Z,102839.15
2018-10-03T06:52:21.442Z,102839.45
2018-10-03T06:54:52.099Z,102839.73
2018-10-03T06:57:21.536Z,102839.19
2018-10-03T06:59:51.039Z,102848.80
2018-10-03T07:02:21.014Z,102847.73
2018-10-03T07:04:50.551Z,102850.48
2018-10-03T07:07:20.115Z,102852.42
2018-10-03T07:09:50.745Z,102863.13
2018-10-03T07:12:20.284Z,102859.59
2018-10-03T07:14:49.893Z,102863.45
2018-10-03T07:17:19.040Z,102865.09
2018-10-03T07:19:49.230Z,102864.03
2018-10-03T07:22:18.417Z,102865.41
2018-10-03T07:24:48.339Z,102857.19
2018-10-03T07:27:17.680Z,102863.81
2018-10-03T07:29:46.768Z,102867.35
2018-10-03T07:32:16.123Z,102875.63
2018-10-03T07:34:45.294Z,102882.23
2018-10-03T07:37:18.607Z,102880.02
2018-10-03T07:39:48.545Z,102880.91
2018-10-03T07:42:18.624Z,102880.64
2018-10-03T07:44:47.824Z,102880.95
2018-10-03T07:47:17.910Z,102880.70
2018-10-03T07:49:49.266Z,102890.92
2018-10-03T07:52:19.548Z,102892.56
2018-10-03T07:54:50.487Z,102894.51
2018-10-03T07:57:19.728Z,102890.66
2018-10-03T07:59:50.032Z,102899.47
2018-10-03T08:02:19.194Z,102895.88
2018-10-03T08:04:48.613Z,102900.05
2018-10-03T08:07:18.587Z,102897.87
2018-10-03T08:09:48.054Z,102897.62
2018-10-03T08:12:17.492Z,102902.05
2018-10-03T08:14:46.898Z,102902.66
2018-10-03T08:17:16.375Z,102904.09
2018-10-03T08:19:46.001Z,102910.16
2018-10-03T08:22:15.121Z,102918.13
2018-10-03T08:24:45.916Z,102911.05
2018-10-03T08:27:17.659Z,102908.34
2018-10-03T08:29:46.713Z,102907.55
2018-10-03T08:32:15.884Z,102912.50
2018-10-03T08:34:45.053Z,102908.96
2018-10-03T08:37:14.191Z,102909.23
2018-10-03T08:39:43.244Z,102912.02
2018-10-03T08:42:12.481Z,102915.60
2018-10-03T08:44:41.880Z,102922.47
2018-10-03T08:47:11.150Z,102926.28
2018-10-03T08:49:41.081Z,102925.13
2018-10-03T08:52:11.324Z,102929.59
2018-10-03T08:54:40.766Z,102927.39
2018-10-03T08:57:15.587Z,102926.33
2018-10-03T08:59:45.719Z,102925.26
2018-10-03T09:02:15.182Z,102928.00
2018-10-03T09:04:44.671Z,102929.07
2018-10-03T09:07:13.817Z,102930.17
2018-10-03T09:09:42.911Z,102942.80
2018-10-03T09:12:12.100Z,102942.27
2018-10-03T09:14:42.062Z,102947.22
2018-10-03T09:17:11.197Z,102950.23
2018-10-03T09:19:40.423Z,102955.20
2018-10-03T09:22:10.031Z,102956.03
2018-10-03T09:24:40.377Z,102955.23
2018-10-03T09:27:09.982Z,102954.44
2018-10-03T09:29:39.203Z,102965.70
2018-10-03T09:32:08.594Z,102960.78
2018-10-03T09:34:37.801Z,102959.97
2018-10-03T09:37:06.941Z,102963.53
2018-10-03T09:39:36.885Z,102966.84
2018-10-03T09:42:05.904Z,102963.80
2018-10-03T09:44:35.201Z,102964.37
2018-10-03T09:47:04.226Z,102959.75
2018-10-03T09:49:34.832Z,102961.77
2018-10-03T09:52:04.322Z,102961.28
2018-10-03T09:54:34.797Z,102965.18
2018-10-03T09:57:17.164Z,102965.18
2018-10-03T09:59:46.271Z,102976.70
2018-10-03T10:02:15.465Z,102972.58
2018-10-03T10:04:44.484Z,102973.95
2018-10-03T10:07:13.592Z,102980.52
2018-10-03T10:09:44.726Z,102981.89
2018-10-03T10:12:13.876Z,102984.64
2018-10-03T10:14:43.821Z,102984.94
2018-10-03T10:17:13.887Z,102986.31
2018-10-03T10:19:43.057Z,102999.48
2018-10-03T10:22:12.446Z,103004.44
2018-10-03T10:24:41.483Z,102999.80
2018-10-03T10:27:10.712Z,103004.26
2018-10-03T10:32:14.561Z,103007.39
2018-10-03T10:34:43.841Z,103007.47
2018-10-03T10:37:13.322Z,102997.89
2018-10-03T10:39:43.793Z,103006.70
2018-10-03T10:42:12.821Z,102998.77
2018-10-03T10:44:42.055Z,103008.95
2018-10-03T10:47:11.198Z,103002.88
2018-10-03T10:49:41.424Z,103001.55
2018-10-03T10:52:10.545Z,103003.79
2018-10-03T10:57:13.839Z,103001.14
2018-10-03T10:59:42.913Z,102998.16
2018-10-03T11:02:12.391Z,103002.58
2018-10-03T11:04:41.737Z,103000.13
2018-10-03T11:07:10.846Z,103004.52
2018-10-03T11:09:40.109Z,103000.13
2018-10-03T11:12:09.492Z,103000.42
2018-10-03T11:14:38.699Z,102999.08
2018-10-03T11:17:16.189Z,103006.25
2018-10-03T11:22:19.325Z,103003.77
2018-10-03T11:24:50.451Z,103002.99
2018-10-03T11:27:19.760Z,103003.31
2018-10-03T11:29:50.111Z,103002.51
2018-10-03T11:32:22.811Z,103003.07
2018-10-03T11:34:52.407Z,103003.91
2018-10-03T11:37:21.570Z,102996.46
2018-10-03T11:39:50.732Z,102995.09
2018-10-03T11:42:20.229Z,102997.84
2018-10-03T11:44:49.275Z,102993.14
2018-10-03T11:47:18.363Z,103003.62
2018-10-03T11:49:47.595Z,102995.33
2018-10-03T11:52:16.753Z,102998.09
2018-10-03T11:54:46.759Z,103001.11
2018-10-03T11:57:17.023Z,102998.63
2018-10-03T11:59:46.121Z,102995.02
2018-10-03T12:02:17.122Z,102992.28
2018-10-03T12:04:46.354Z,102977.98
2018-10-03T12:07:18.256Z,102983.78
2018-10-03T12:09:47.542Z,102984.38
2018-10-03T12:12:16.849Z,102986.32
2018-10-03T12:14:52.810Z,102981.34
2018-10-03T12:17:22.157Z,102976.70
2018-10-03T12:19:51.362Z,102982.50
2018-10-03T12:22:21.536Z,102980.61
2018-10-03T12:24:51.211Z,102975.94
2018-10-03T12:27:20.488Z,102978.69
2018-10-03T12:29:50.085Z,102976.77
2018-10-03T12:32:19.370Z,102973.75
2018-10-03T12:34:48.928Z,102967.43
2018-10-03T12:37:18.083Z,102963.86
2018-10-03T12:39:47.145Z,102958.63
2018-10-03T12:42:16.300Z,102965.25
2018-10-03T12:44:46.464Z,102961.41
2018-10-03T12:47:16.751Z,102958.66
2018-10-03T12:49:45.808Z,102956.73
2018-10-03T12:52:14.917Z,102958.64
2018-10-03T12:54:44.342Z,102950.38
2018-10-03T12:57:13.305Z,102953.41
2018-10-03T12:59:43.304Z,102950.66
2018-10-03T13:02:12.435Z,102955.33
2018-10-03T13:04:41.616Z,102956.68
2018-10-03T13:07:10.771Z,102952.85
2018-10-03T13:09:39.836Z,102943.22
2018-10-03T13:12:08.918Z,102943.48
2018-10-03T13:14:38.309Z,102942.41
2018-10-03T13:17:07.513Z,102949.28
2018-10-03T13:19:36.945Z,102946.80
2018-10-03T13:22:06.232Z,102946.80
2018-10-03T13:24:35.412Z,102950.65
2018-10-03T13:27:04.520Z,102947.63
2018-10-03T13:29:33.659Z,102936.34
2018-10-03T13:32:02.759Z,102935.23
2018-10-03T13:34:32.128Z,102929.48
2018-10-03T13:37:01.252Z,102922.58
2018-10-03T13:39:35.136Z,102924.50
2018-10-03T13:42:04.328Z,102915.70
2018-10-03T13:44:33.536Z,102911.85
2018-10-03T13:47:03.763Z,102912.68
2018-10-03T13:49:33.070Z,102910.48
2018-10-03T13:52:02.863Z,102902.50
2018-10-03T13:54:32.676Z,102908.55
2018-10-03T13:57:05.994Z,102903.05
2018-10-03T13:59:35.357Z,102904.43
2018-10-03T14:02:04.654Z,102903.59
2018-10-03T14:04:33.950Z,102906.06
2018-10-03T14:07:03.584Z,102901.91
2018-10-03T14:09:33.174Z,102910.47
2018-10-03T14:12:02.556Z,102902.21
2018-10-03T14:14:32.267Z,102907.70
2018-10-03T14:17:01.438Z,102903.88
2018-10-03T14:19:30.469Z,102903.05
2018-10-03T14:21:59.620Z,102902.22
2018-10-03T14:24:28.877Z,102901.95
2018-10-03T14:26:58.110Z,102894.22
2018-10-03T14:29:27.957Z,102900.00
2018-10-03T14:31:57.947Z,102895.30
2018-10-03T14:34:27.033Z,102899.17
2018-10-03T14:36:56.617Z,102898.88
2018-10-03T14:39:27.206Z,102893.64
2018-10-03T14:41:56.449Z,102898.59
2018-10-03T14:44:25.543Z,102894.47
2018-10-03T14:46:54.963Z,102898.03
2018-10-03T14:49:24.002Z,102892.78
2018-10-03T14:51:53.138Z,102888.64
2018-10-03T14:54:22.419Z,102893.04
2018-10-03T14:56:51.862Z,102891.09
2018-10-03T14:59:21.474Z,102880.64
2018-10-03T15:02:11.583Z,102875.39
2018-10-03T15:07:51.374Z,102879.48
2018-10-03T15:10:27.732Z,102876.73
2018-10-03T15:12:59.663Z,102883.31
2018-10-03T15:15:32.941Z,102873.40
2018-10-03T15:18:09.475Z,102872.27
2018-10-03T15:20:44.437Z,102867.58
2018-10-03T15:23:30.472Z,102872.25
2018-10-03T15:26:06.961Z,102863.43
2018-10-03T15:28:52.853Z,102869.75
2018-10-03T15:32:04.823Z,102877.44
2018-10-03T15:34:33.996Z,102877.12
2018-10-03T15:37:08.171Z,102877.63
2018-10-03T15:39:49.915Z,102878.98
2018-10-03T15:42:44.559Z,102878.16
2018-10-03T15:45:24.287Z,102875.91
2018-10-03T15:47:53.596Z,102875.08
2018-10-03T15:50:23.185Z,102875.33
2018-10-03T15:53:06.910Z,102882.73
2018-10-03T15:55:36.091Z,102882.41
2018-10-03T15:58:05.454Z,102883.75
2018-10-03T16:00:36.439Z,102870.25
2018-10-03T16:03:05.628Z,102877.92
2018-10-03T16:05:34.807Z,102874.91
2018-10-03T16:08:11.829Z,102882.89
2018-10-03T16:10:41.366Z,102873.47
2018-10-03T16:13:10.743Z,102873.17
2018-10-03T16:15:39.762Z,102873.98
2018-10-03T16:18:08.897Z,102871.50
2018-10-03T16:20:38.589Z,102870.42
2018-10-03T16:23:07.813Z,102869.02
2018-10-03T16:25:36.953Z,102865.94
2018-10-03T16:28:06.785Z,102871.43
2018-10-03T16:30:35.857Z,102874.41
2018-10-03T16:33:05.318Z,102874.17
2018-10-03T16:35:34.495Z,102873.61
2018-10-03T16:38:03.521Z,102875.55
2018-10-03T16:40:32.607Z,102876.89
2018-10-03T16:43:01.637Z,102875.75
2018-10-03T16:45:31.230Z,102875.18
2018-10-03T16:48:00.655Z,102878.16
2018-10-03T16:50:30.605Z,102879.76
2018-10-03T16:53:00.745Z,102886.05
2018-10-03T16:55:29.956Z,102876.70
2018-10-03T16:57:59.035Z,102883.27
2018-10-03T17:00:28.061Z,102879.95
2018-10-03T17:02:58.161Z,102878.27
2018-10-03T17:05:27.272Z,102876.36
2018-10-03T17:07:56.466Z,102876.36
2018-10-03T17:10:25.658Z,102878.23
2018-10-03T17:12:54.853Z,102878.50
2018-10-03T17:15:29.121Z,102878.50
2018-10-03T17:17:58.314Z,102878.77
2018-10-03T17:20:28.001Z,102884.79
2018-10-03T17:22:57.066Z,102886.95
2018-10-03T17:25:26.059Z,102892.45
2018-10-03T17:27:55.131Z,102888.29
2018-10-03T17:30:24.894Z,102887.44
2018-10-03T17:32:53.927Z,102881.34
2018-10-03T17:35:22.952Z,102880.77
2018-10-03T17:37:52.720Z,102889.30
2018-10-03T17:40:22.776Z,102882.14
2018-10-03T17:42:51.916Z,102890.10
2018-10-03T17:45:20.970Z,102885.67
2018-10-03T17:47:50.013Z,102885.67
2018-10-03T17:50:19.170Z,102886.52
2018-10-03T17:52:48.324Z,102890.63
2018-10-03T17:55:17.384Z,102885.14
2018-10-03T17:57:47.160Z,102892.49
2018-10-03T18:00:16.263Z,102896.34
2018-10-03T18:02:45.371Z,102897.66
2018-10-03T18:05:15.269Z,102888.28
2018-10-03T18:07:44.326Z,102893.46
2018-10-03T18:10:13.479Z,102894.83
2018-10-03T18:12:43.276Z,102897.34
2018-10-03T18:15:12.389Z,102895.94
2018-10-03T18:17:41.666Z,102906.85
2018-10-03T18:20:10.766Z,102901.89
2018-10-03T18:22:40.012Z,102899.42
2018-10-03T18:25:09.174Z,102906.59
2018-10-03T18:27:39.029Z,102904.42
2018-10-03T18:30:08.273Z,102906.06
2018-10-03T18:32:38.198Z,102903.80
2018-10-03T18:35:07.561Z,102902.95
2018-10-03T18:37:36.785Z,102901.31
2018-10-03T18:40:06.840Z,102900.43
2018-10-03T18:42:35.976Z,102903.12
2018-10-03T18:45:05.150Z,102903.91
2018-10-03T18:47:34.232Z,102907.50
2018-10-03T18:50:03.401Z,102914.88
2018-10-03T18:52:32.521Z,102908.61
2018-10-03T18:55:02.272Z,102910.51
2018-10-03T18:57:31.428Z,102901.48
2018-10-03T19:00:00.560Z,102905.80
2018-10-03T19:02:30.155Z,102904.69
2018-10-03T19:04:59.297Z,102902.48
2018-10-03T19:07:28.333Z,102903.02
2018-10-03T19:09:57.339Z,102898.38
2018-10-03T19:12:26.517Z,102900.00
2018-10-03T19:14:55.544Z,102906.55
2018-10-03T19:17:24.597Z,102901.33
2018-10-03T19:19:53.666Z,102902.37
2018-10-03T19:22:22.653Z,102909.11
2018-10-03T19:24:52.674Z,102910.74
2018-10-03T19:27:21.679Z,102907.70
2018-10-03T19:29:50.723Z,102904.70
2018-10-03T19:32:19.828Z,102906.11
2018-10-03T19:34:49.025Z,102905.27
2018-10-03T19:37:18.831Z,102906.64
2018-10-03T19:39:47.880Z,102901.47
2018-10-03T19:42:18.591Z,102902.86
2018-10-03T19:44:47.771Z,102898.52
2018-10-03T19:47:16.784Z,102901.22
2018-10-03T19:49:46.168Z,102889.72
2018-10-03T19:52:15.298Z,102895.51
2018-10-03T19:54:44.356Z,102896.88
2018-10-03T19:57:14.227Z,102897.37
2018-10-03T19:59:43.960Z,102892.14
2018-10-03T20:02:14.445Z,102892.13
2018-10-03T20:04:43.605Z,102890.45
2018-10-03T20:07:12.799Z,102900.30
2018-10-03T20:09:42.099Z,102897.22
2018-10-03T20:12:13.396Z,102896.36
2018-10-03T20:14:43.492Z,102895.54
2018-10-03T20:17:12.816Z,102887.62
2018-10-03T20:19:43.375Z,102893.94
2018-10-03T20:22:13.249Z,102891.73
2018-10-03T20:24:42.428Z,102883.77
2018-10-03T20:27:13.053Z,102883.72
2018-10-03T20:29:42.178Z,102883.67
2018-10-03T20:32:11.575Z,102880.61
2018-10-03T20:34:40.918Z,102887.44
2018-10-03T20:37:10.377Z,102887.44
2018-10-03T20:39:39.688Z,102887.70
2018-10-03T20:42:09.826Z,102879.75
2018-10-03T20:44:41.472Z,102883.33
2018-10-03T20:47:10.584Z,102886.91
2018-10-03T20:49:39.728Z,102883.91
2018-10-03T20:52:09.149Z,102883.66
2018-10-03T20:54:38.449Z,102874.64
2018-10-03T20:57:07.509Z,102883.92
2018-10-03T20:59:36.554Z,102882.81
2018-10-03T21:02:05.605Z,102880.84
2018-10-03T21:04:36.050Z,102874.48
2018-10-03T21:07:05.193Z,102876.90
2018-10-03T21:09:34.292Z,102871.94
2018-10-03T21:12:03.441Z,102869.45
2018-10-03T21:14:32.573Z,102861.18
2018-10-03T21:17:01.628Z,102872.77
2018-10-03T21:19:30.622Z,102872.20
2018-10-03T21:21:59.695Z,102868.66
2018-10-03T21:24:28.788Z,102862.88
2018-10-03T21:26:57.880Z,102861.23
2018-10-03T21:29:28.651Z,102866.41
2018-10-03T21:31:58.024Z,102858.16
2018-10-03T21:34:27.037Z,102854.84
2018-10-03T21:36:56.441Z,102862.53
2018-10-03T21:39:25.602Z,102855.36
2018-10-03T21:47:59.907Z,102850.69
2018-10-03T21:50:28.953Z,102850.69
2018-10-03T21:52:58.661Z,102850.20
2018-10-03T21:55:27.770Z,102842.52
2018-10-03T21:57:56.911Z,102838.35
2018-10-03T22:00:31.327Z,102845.99
2018-10-03T22:03:00.658Z,102842.45
2018-10-03T22:05:29.691Z,102837.50
2018-10-03T22:07:58.710Z,102839.97
2018-10-03T22:10:27.793Z,102844.08
2018-10-03T22:12:56.828Z,102841.86
2018-10-03T22:15:26.482Z,102842.14
2018-10-03T22:17:55.494Z,102839.97
2018-10-03T22:20:38.872Z,102840.75
2018-10-03T22:23:26.156Z,102841.56
2018-10-03T22:26:12.875Z,102842.70
2018-10-03T22:31:58.476Z,102838.08
2018-10-03T22:34:45.814Z,102840.05
2018-10-03T22:37:40.430Z,102835.35
2018-10-03T22:40:22.353Z,102837.29
2018-10-03T22:43:08.473Z,102835.34
2018-10-03T22:45:53.431Z,102834.30
2018-10-03T22:48:37.828Z,102834.36
2018-10-03T22:51:22.422Z,102824.17
2018-10-03T22:53:55.068Z,102827.91
2018-10-03T22:56:34.888Z,102824.27
2018-10-03T22:59:20.174Z,102823.42
2018-10-03T23:02:01.564Z,102828.63
2018-10-03T23:04:45.341Z,102825.03
2018-10-03T23:07:26.971Z,102823.09
2018-10-03T23:09:58.894Z,102820.30
2018-10-03T23:12:42.186Z,102815.59
2018-10-03T23:15:15.000Z,102823.57
2018-10-03T23:18:07.190Z,102815.61
2018-10-03T23:20:40.236Z,102815.61
2018-10-03T23:23:10.169Z,102820.25
2018-10-03T23:25:42.613Z,102813.40
2018-10-03T23:28:15.906Z,102811.75
2018-10-03T23:30:50.597Z,102819.97
2018-10-03T23:33:23.104Z,102814.44
2018-10-03T23:35:52.142Z,102815.80
2018-10-03T23:38:21.159Z,102819.02
2018-10-03T23:40:50.249Z,102818.73
2018-10-03T23:43:19.276Z,102814.36
2018-10-03T23:45:48.433Z,102820.64
2018-10-03T23:48:17.727Z,102820.90
2018-10-03T23:50:46.738Z,102816.72
2018-10-03T23:53:15.830Z,102816.72
2018-10-03T23:55:44.861Z,102813.14
2018-10-03T23:58:13.893Z,102811.50
